Time;durP1;ratioP1;P1;durP2;ratioP2;P2;SDS_P1;SDS_P2;PMS_P1;PMS_P2;Temp;Humidity;BMP_temperature;BMP_pressure;BME280_temperature;BME280_humidity;BME280_pressure;Samples;Min_cycle;Max_cycle;Signal;HPM_P1;HPM_P2
2021/10/30 00:01:22;;;;;;;9.43;6.70;;;10.00;92.80;10.00;100313.00;;;;4937184;28;107670;-67
2021/10/30 00:03:50;;;;;;;12.10;8.10;;;10.00;92.90;10.00;100313.00;;;;4935977;28;118279;-68
2021/10/30 00:06:17;;;;;;;14.17;8.33;;;10.00;93.00;10.00;100307.00;;;;4937861;28;88114;-67
2021/10/30 00:08:42;;;;;;;14.03;8.03;;;10.00;93.10;10.00;100317.00;;;;4952157;28;87760;-67
2021/10/30 00:11:08;;;;;;;9.57;6.93;;;10.00;93.10;10.00;100315.00;;;;4938051;28;90189;-68
2021/10/30 00:13:34;;;;;;;11.70;7.63;;;10.00;93.20;9.90;100321.00;;;;4951297;28;101402;-67
2021/10/30 00:16:00;;;;;;;12.03;8.30;;;10.00;93.40;10.00;100320.00;;;;4937358;28;87928;-67
2021/10/30 00:18:26;;;;;;;10.93;7.17;;;10.00;93.50;10.00;100316.00;;;;4937055;28;86941;-66
2021/10/30 00:20:53;;;;;;;10.53;7.40;;;10.00;93.60;10.00;100304.00;;;;4937442;28;87766;-67
2021/10/30 00:23:18;;;;;;;10.70;7.50;;;10.00;93.60;10.00;100309.00;;;;4936619;28;88710;-68
2021/10/30 00:25:44;;;;;;;13.10;8.10;;;10.90;93.90;10.00;100324.00;;;;4936097;28;117542;-69
2021/10/30 00:28:10;;;;;;;12.37;8.10;;;10.00;93.60;10.00;100322.00;;;;4935668;28;110508;-68
2021/10/30 00:30:35;;;;;;;12.00;8.03;;;10.00;93.50;10.00;100321.00;;;;4937492;28;108200;-69
2021/10/30 00:33:01;;;;;;;10.67;7.30;;;10.00;93.60;9.90;100319.00;;;;4933081;28;117416;-68
2021/10/30 00:35:27;;;;;;;11.43;6.97;;;10.00;93.80;9.90;100318.00;;;;4936786;28;115889;-69
2021/10/30 00:37:53;;;;;;;21.23;9.03;;;10.00;93.90;9.90;100325.00;;;;4951920;28;88012;-67
2021/10/30 00:40:19;;;;;;;11.27;8.03;;;9.90;94.00;9.90;100322.00;;;;4936486;28;109190;-67
2021/10/30 00:42:44;;;;;;;10.70;7.70;;;9.90;93.90;9.90;100332.00;;;;4936649;28;117631;-68
2021/10/30 00:45:10;;;;;;;14.13;8.73;;;9.90;94.10;9.90;100330.00;;;;4935947;28;87541;-69
2021/10/30 00:47:36;;;;;;;12.83;7.87;;;9.90;94.30;9.90;100320.00;;;;4951580;28;87957;-69
2021/10/30 00:50:05;;;;;;;13.43;8.23;;;9.90;94.50;9.90;100317.00;;;;4951681;28;88815;-68
2021/10/30 00:52:31;;;;;;;13.43;8.53;;;9.90;94.40;9.90;100317.00;;;;4935944;28;88008;-68
2021/10/30 00:55:01;;;;;;;16.27;8.77;;;9.90;94.30;9.90;100312.00;;;;4935795;28;103963;-68
2021/10/30 00:57:28;;;;;;;11.50;8.77;;;9.90;94.30;9.90;100316.00;;;;4951647;28;87850;-68
2021/10/30 00:59:55;;;;;;;14.00;8.37;;;9.90;94.40;9.80;100319.00;;;;4936440;28;87926;-67
2021/10/30 01:02:22;;;;;;;11.67;8.50;;;9.90;94.50;9.80;100314.00;;;;4936897;28;88045;-67
2021/10/30 01:04:48;;;;;;;11.83;7.83;;;9.80;94.40;9.80;100316.00;;;;4936540;28;88119;-67
2021/10/30 01:07:14;;;;;;;20.30;8.37;;;9.80;94.50;9.80;100306.00;;;;4936663;28;98524;-67
2021/10/30 01:09:40;;;;;;;12.00;8.53;;;9.80;94.70;9.70;100305.00;;;;4936099;28;97040;-68
2021/10/30 01:12:09;;;;;;;12.53;8.67;;;9.70;94.70;9.70;100302.00;;;;4950490;28;117913;-67
2021/10/30 01:14:36;;;;;;;13.30;7.97;;;9.70;94.90;9.70;100308.00;;;;4935909;28;88655;-66
2021/10/30 01:17:05;;;;;;;14.60;8.87;;;9.70;95.10;9.70;100305.00;;;;4950750;28;92060;-68
2021/10/30 01:19:32;;;;;;;14.43;7.63;;;10.00;95.20;9.70;100302.00;;;;4936346;28;87764;-67
2021/10/30 01:22:00;;;;;;;9.60;7.67;;;9.70;95.20;9.70;100290.00;;;;4935826;28;104773;-68
2021/10/30 01:24:26;;;;;;;11.63;7.17;;;9.70;95.20;9.70;100299.00;;;;4917283;28;89329;-68
2021/10/30 01:26:52;;;;;;;13.83;8.43;;;9.70;95.20;9.80;100288.00;;;;4935832;28;99765;-68
2021/10/30 01:29:19;;;;;;;14.50;8.90;;;9.70;95.20;9.80;100290.00;;;;4934194;28;88084;-68
2021/10/30 01:31:45;;;;;;;12.50;8.43;;;9.80;95.20;9.80;100284.00;;;;4936775;28;88207;-68
2021/10/30 01:34:10;;;;;;;12.27;7.40;;;9.70;95.10;9.70;100278.00;;;;4936104;28;88775;-68
2021/10/30 01:36:37;;;;;;;7.80;6.27;;;9.70;95.20;9.80;100278.00;;;;4936375;28;87531;-68
2021/10/30 01:39:06;;;;;;;10.37;6.93;;;9.80;95.30;9.80;100275.00;;;;4935224;28;109736;-66
2021/10/30 01:41:32;;;;;;;12.47;8.13;;;9.90;95.30;9.80;100279.00;;;;4936786;28;89173;-67
2021/10/30 01:43:58;;;;;;;11.23;7.87;;;9.80;95.20;9.80;100265.00;;;;4935726;28;93781;-67
2021/10/30 01:46:25;;;;;;;12.70;7.23;;;9.80;95.20;9.80;100263.00;;;;4936777;28;87765;-67
2021/10/30 01:48:52;;;;;;;13.93;7.40;;;9.80;95.20;9.80;100267.00;;;;4936353;28;87784;-68
2021/10/30 01:51:19;;;;;;;12.07;7.60;;;9.80;95.20;9.80;100262.00;;;;4936076;28;88498;-68
2021/10/30 01:53:46;;;;;;;11.67;8.10;;;10.20;95.40;9.80;100273.00;;;;4935143;28;101430;-67
2021/10/30 01:56:12;;;;;;;13.23;7.80;;;9.80;95.30;9.80;100272.00;;;;4936725;28;87540;-67
2021/10/30 01:58:38;;;;;;;10.83;6.63;;;9.80;95.40;9.80;100257.00;;;;4935910;28;88062;-67
2021/10/30 02:01:06;;;;;;;11.17;8.00;;;9.70;95.40;9.80;100251.00;;;;4935657;28;117858;-67
2021/10/30 02:03:33;;;;;;;15.23;7.87;;;9.80;95.40;9.80;100251.00;;;;4950188;28;88966;-68
2021/10/30 02:06:02;;;;;;;13.70;8.70;;;9.80;95.40;9.80;100253.00;;;;4936907;28;87850;-67
2021/10/30 02:08:29;;;;;;;11.90;7.40;;;9.80;95.40;9.80;100239.00;;;;4936505;28;88210;-69
2021/10/30 02:10:56;;;;;;;9.03;6.63;;;9.80;95.40;9.80;100234.00;;;;4935460;28;88783;-67
2021/10/30 02:13:22;;;;;;;11.43;6.80;;;9.80;95.30;9.80;100241.00;;;;4935367;28;87771;-67
2021/10/30 02:15:49;;;;;;;12.43;8.20;;;9.80;95.30;9.80;100252.00;;;;4936587;28;87690;-67
2021/10/30 02:18:15;;;;;;;10.67;7.53;;;9.80;95.20;9.80;100233.00;;;;4935849;28;99080;-67
2021/10/30 02:20:41;;;;;;;8.90;6.90;;;9.80;95.10;9.80;100237.00;;;;4936575;28;98609;-67
2021/10/30 02:23:08;;;;;;;13.17;7.43;;;9.80;95.10;9.80;100239.00;;;;4935633;28;89853;-67
2021/10/30 02:25:33;;;;;;;12.23;7.70;;;9.80;95.20;9.70;100228.00;;;;4935006;28;108765;-67
2021/10/30 02:27:59;;;;;;;10.63;7.10;;;9.70;95.20;9.70;100228.00;;;;4935420;28;88556;-68
2021/10/30 02:30:25;;;;;;;10.00;7.73;;;9.80;95.40;9.70;100225.00;;;;4935826;28;105407;-66
2021/10/30 02:32:52;;;;;;;9.80;7.67;;;9.70;95.40;9.70;100226.00;;;;4934942;28;87866;-68
2021/10/30 02:35:17;;;;;;;11.17;7.13;;;9.70;95.40;9.70;100232.00;;;;4935902;28;87488;-70
2021/10/30 02:37:43;;;;;;;11.07;7.70;;;9.70;95.40;9.70;100226.00;;;;4936401;28;87749;-68
2021/10/30 02:40:10;;;;;;;11.60;8.07;;;10.20;95.50;9.70;100229.00;;;;4935544;28;87663;-68
2021/10/30 02:42:36;;;;;;;13.63;7.97;;;9.70;95.30;9.70;100223.00;;;;4936120;28;88277;-67
2021/10/30 02:45:04;;;;;;;9.97;7.43;;;9.70;95.40;9.70;100226.00;;;;4936198;28;87122;-68
2021/10/30 02:47:30;;;;;;;9.63;7.17;;;9.70;95.40;9.70;100219.00;;;;4950781;28;87751;-67
2021/10/30 02:49:56;;;;;;;12.57;7.93;;;9.70;95.40;9.60;100217.00;;;;4935940;28;92044;-68
2021/10/30 02:52:22;;;;;;;11.23;8.00;;;9.40;95.30;9.60;100223.00;;;;4934684;28;89442;-67
2021/10/30 02:54:48;;;;;;;10.17;7.37;;;9.60;95.40;9.60;100226.00;;;;4933881;28;111119;-68
2021/10/30 02:57:14;;;;;;;10.50;8.10;;;9.60;95.40;9.50;100227.00;;;;4935668;28;108684;-69
2021/10/30 02:59:40;;;;;;;15.93;7.33;;;9.50;95.30;9.40;100221.00;;;;4934616;28;117032;-68
2021/10/30 03:02:06;;;;;;;11.93;7.57;;;9.50;95.30;9.40;100219.00;;;;4934845;28;116108;-68
2021/10/30 03:04:32;;;;;;;11.60;7.20;;;9.40;95.50;9.30;100229.00;;;;4934615;28;103215;-68
2021/10/30 03:06:57;;;;;;;12.17;7.47;;;9.40;95.70;9.30;100231.00;;;;4950240;28;87840;-67
2021/10/30 03:09:23;;;;;;;13.13;7.53;;;9.30;95.70;9.20;100229.00;;;;4939065;28;88038;-68
2021/10/30 03:11:49;;;;;;;8.87;7.70;;;9.30;95.80;9.20;100244.00;;;;4937932;28;115223;-67
2021/10/30 03:14:15;;;;;;;12.30;7.70;;;9.20;96.10;9.10;100242.00;;;;4937801;28;109244;-68
2021/10/30 03:16:40;;;;;;;10.47;6.30;;;9.20;96.20;9.10;100245.00;;;;4938486;28;88832;-68
2021/10/30 03:19:06;;;;;;;13.50;8.80;;;9.20;96.20;9.10;100240.00;;;;4938839;28;88867;-67
2021/10/30 03:21:32;;;;;;;10.03;7.90;;;9.20;96.30;9.10;100231.00;;;;4938490;28;100501;-67
2021/10/30 03:23:58;;;;;;;11.23;7.67;;;9.10;96.60;9.10;100232.00;;;;4938035;28;87762;-68
2021/10/30 03:26:24;;;;;;;9.43;7.83;;;9.10;96.80;9.10;100231.00;;;;4951922;28;108810;-68
2021/10/30 03:28:51;;;;;;;10.80;8.00;;;9.10;96.80;9.10;100232.00;;;;4935809;28;106340;-68
2021/10/30 03:31:17;;;;;;;12.97;7.60;;;9.10;96.70;9.10;100230.00;;;;4938717;28;87955;-68
2021/10/30 03:33:43;;;;;;;11.87;7.47;;;9.10;96.70;9.00;100243.00;;;;4938774;28;87252;-66
2021/10/30 03:36:08;;;;;;;15.20;7.57;;;9.10;96.70;9.00;100243.00;;;;4938539;28;87809;-68
2021/10/30 03:38:34;;;;;;;15.83;7.47;;;9.60;97.00;9.00;100233.00;;;;4938169;28;88450;-67
2021/10/30 03:41:00;;;;;;;11.27;7.70;;;9.10;97.10;9.10;100245.00;;;;4937959;28;88620;-68
2021/10/30 03:43:27;;;;;;;11.80;7.10;;;9.10;97.20;9.10;100234.00;;;;4937925;28;88504;-67
2021/10/30 03:45:53;;;;;;;14.77;8.63;;;9.10;97.10;9.10;100240.00;;;;4938208;28;87748;-69
2021/10/30 03:48:20;;;;;;;13.83;8.20;;;9.10;97.00;9.00;100241.00;;;;4936936;28;117909;-69
2021/10/30 03:50:46;;;;;;;12.73;8.13;;;9.10;96.90;9.00;100246.00;;;;4937641;28;87815;-69
2021/10/30 03:53:13;;;;;;;9.37;7.23;;;9.10;97.10;9.00;100243.00;;;;4952910;28;88302;-71
2021/10/30 03:55:38;;;;;;;10.67;6.93;;;9.00;97.30;8.90;100247.00;;;;4938195;28;87735;-69
2021/10/30 03:58:05;;;;;;;11.67;7.13;;;9.00;97.20;8.90;100242.00;;;;4938072;28;99041;-69
2021/10/30 04:00:31;;;;;;;9.93;6.70;;;9.00;97.10;8.80;100246.00;;;;4937927;28;95391;-69
2021/10/30 04:02:57;;;;;;;12.90;7.43;;;8.90;97.20;8.70;100236.00;;;;4937159;28;93807;-69
2021/10/30 04:05:23;;;;;;;11.33;7.80;;;8.80;97.30;8.70;100240.00;;;;4937739;28;89054;-69
2021/10/30 04:07:49;;;;;;;9.00;6.07;;;9.10;97.50;8.60;100235.00;;;;4936009;28;105347;-69
2021/10/30 04:10:15;;;;;;;13.17;8.60;;;8.70;97.60;8.50;100234.00;;;;4937515;28;88762;-69
2021/10/30 04:12:41;;;;;;;11.57;6.83;;;8.60;97.70;8.40;100234.00;;;;4937012;28;110341;-69
2021/10/30 04:15:08;;;;;;;12.77;8.27;;;8.50;97.80;8.40;100236.00;;;;4952313;28;88027;-70
2021/10/30 04:17:34;;;;;;;12.20;8.13;;;8.50;98.00;8.30;100245.00;;;;4937122;28;88375;-69
2021/10/30 04:19:59;;;;;;;12.47;7.90;;;8.40;98.40;8.20;100234.00;;;;4935341;28;118001;-69
2021/10/30 04:22:25;;;;;;;12.07;7.87;;;8.30;98.40;8.10;100237.00;;;;4951831;28;101609;-69
2021/10/30 04:24:51;;;;;;;9.87;7.23;;;8.20;98.50;8.00;100226.00;;;;4936495;28;109037;-69
2021/10/30 04:27:17;;;;;;;11.50;7.50;;;8.20;98.90;8.00;100235.00;;;;4937116;28;88229;-69
2021/10/30 04:29:42;;;;;;;11.27;7.43;;;8.10;99.00;7.90;100222.00;;;;4935576;28;117354;-69
2021/10/30 04:32:10;;;;;;;9.97;7.00;;;8.00;99.20;7.80;100209.00;;;;4936605;28;108560;-68
2021/10/30 04:37:15;;;;;;;11.70;7.27;;;7.90;99.60;7.60;100213.00;;;;4934981;28;87953;-68
2021/10/30 04:39:45;;;;;;;11.17;7.37;;;7.90;99.80;7.50;100212.00;;;;4950804;28;88063;-68
2021/10/30 04:42:11;;;;;;;11.10;8.70;;;7.70;99.80;7.40;100208.00;;;;4937150;28;87919;-68
2021/10/30 04:44:37;;;;;;;12.93;8.27;;;7.60;99.90;7.30;100206.00;;;;4937020;28;96612;-68
2021/10/30 04:47:03;;;;;;;12.33;7.97;;;8.10;99.90;7.20;100206.00;;;;4935996;28;116791;-69
2021/10/30 04:49:29;;;;;;;11.50;6.77;;;7.40;99.90;7.10;100200.00;;;;4936990;28;87981;-68
2021/10/30 04:51:55;;;;;;;12.00;7.80;;;7.30;99.90;7.00;100207.00;;;;4936393;28;109749;-68
2021/10/30 04:54:21;;;;;;;12.80;7.67;;;7.20;99.90;6.90;100208.00;;;;4950994;28;88893;-68
2021/10/30 04:56:46;;;;;;;11.17;7.90;;;7.10;99.90;6.80;100200.00;;;;4936732;28;88340;-68
2021/10/30 04:59:12;;;;;;;11.90;7.53;;;6.90;99.90;6.60;100200.00;;;;4936647;28;93355;-68
2021/10/30 05:01:38;;;;;;;13.67;8.73;;;6.80;99.90;6.50;100189.00;;;;4936459;28;110529;-69
2021/10/30 05:04:04;;;;;;;12.13;8.27;;;6.70;99.90;6.40;100183.00;;;;4936171;28;108970;-69
2021/10/30 05:06:29;;;;;;;14.73;8.37;;;6.60;99.90;6.30;100177.00;;;;4950353;28;117840;-68
2021/10/30 05:08:55;;;;;;;10.17;7.27;;;6.50;99.90;6.20;100179.00;;;;4935223;28;117839;-68
2021/10/30 05:11:20;;;;;;;13.63;8.70;;;6.40;99.90;6.10;100170.00;;;;4936802;28;109511;-68
2021/10/30 05:13:46;;;;;;;8.97;7.60;;;6.20;99.90;6.00;100177.00;;;;4936146;28;109933;-68
2021/10/30 05:16:12;;;;;;;12.53;8.43;;;6.20;99.90;5.90;100169.00;;;;4935415;28;116783;-68
2021/10/30 05:18:38;;;;;;;16.57;10.00;;;6.10;99.90;5.80;100158.00;;;;4935843;28;89100;-68
2021/10/30 05:21:03;;;;;;;13.43;9.63;;;6.00;99.90;5.80;100160.00;;;;4935767;28;108587;-69
2021/10/30 05:23:29;;;;;;;10.17;8.43;;;6.00;99.90;5.70;100155.00;;;;4935831;28;108683;-69
2021/10/30 05:25:55;;;;;;;9.93;7.53;;;5.80;99.90;5.60;100156.00;;;;4935687;28;112541;-70
2021/10/30 05:28:21;;;;;;;20.60;7.37;;;5.80;99.90;5.50;100150.00;;;;4934643;28;116777;-69
2021/10/30 05:30:49;;;;;;;14.00;9.63;;;5.70;99.90;5.50;100150.00;;;;4936310;28;87972;-69
2021/10/30 05:33:15;;;;;;;14.47;9.07;;;5.70;99.90;5.40;100154.00;;;;4935282;28;87627;-69
2021/10/30 05:35:40;;;;;;;17.40;10.27;;;5.60;99.90;5.30;100161.00;;;;4936512;28;95897;-68
2021/10/30 05:38:06;;;;;;;12.83;8.40;;;5.50;99.90;5.20;100157.00;;;;4934218;28;118110;-68
2021/10/30 05:40:34;;;;;;;14.70;10.13;;;6.00;99.90;5.20;100163.00;;;;4935577;28;112729;-69
2021/10/30 05:43:00;;;;;;;13.23;10.30;;;5.40;99.90;5.10;100164.00;;;;4945773;28;99134;-67
2021/10/30 05:45:26;;;;;;;14.53;10.77;;;5.40;99.90;5.10;100161.00;;;;4930826;28;118599;-68
2021/10/30 05:47:51;;;;;;;13.67;8.60;;;5.30;99.90;5.00;100161.00;;;;4930948;28;113475;-68
2021/10/30 05:50:17;;;;;;;12.77;9.73;;;5.20;99.90;5.00;100154.00;;;;4931466;28;114804;-69
2021/10/30 05:52:43;;;;;;;17.27;10.67;;;5.30;99.90;4.90;100158.00;;;;4932966;28;87763;-69
2021/10/30 05:55:09;;;;;;;15.17;10.83;;;5.20;99.90;4.80;100162.00;;;;4930271;28;101236;-69
2021/10/30 05:57:35;;;;;;;15.50;10.30;;;5.10;99.90;4.80;100161.00;;;;4930954;28;105744;-69
2021/10/30 06:00:01;;;;;;;16.10;10.33;;;5.00;99.90;4.80;100163.00;;;;4929112;28;113948;-69
2021/10/30 06:02:26;;;;;;;17.07;10.40;;;5.20;99.90;4.70;100151.00;;;;4930878;28;108963;-68
2021/10/30 06:04:54;;;;;;;12.50;9.70;;;4.90;99.90;4.70;100160.00;;;;4930552;28;119619;-69
2021/10/30 06:07:20;;;;;;;17.47;10.07;;;5.40;99.90;4.60;100149.00;;;;4931515;28;88608;-69
2021/10/30 06:09:45;;;;;;;14.70;10.70;;;4.70;99.90;4.60;100147.00;;;;4931839;28;92755;-68
2021/10/30 06:12:11;;;;;;;14.37;10.07;;;4.80;99.90;4.60;100150.00;;;;4928181;28;107700;-68
2021/10/30 06:14:37;;;;;;;18.57;12.27;;;4.80;99.90;4.60;100152.00;;;;4930382;28;118949;-68
2021/10/30 06:17:03;;;;;;;12.17;9.87;;;5.30;99.90;4.60;100159.00;;;;4931098;28;88790;-69
2021/10/30 06:19:29;;;;;;;12.80;9.33;;;4.70;99.90;4.60;100147.00;;;;4930972;28;88004;-69
2021/10/30 06:21:55;;;;;;;15.90;9.83;;;5.00;99.90;4.60;100151.00;;;;4931453;28;108041;-69
2021/10/30 06:24:21;;;;;;;14.23;9.93;;;5.00;99.90;4.60;100152.00;;;;4931324;28;88593;-69
2021/10/30 06:26:47;;;;;;;14.47;9.50;;;4.80;99.90;4.60;100150.00;;;;4931376;28;88349;-68
2021/10/30 06:29:13;;;;;;;16.80;10.03;;;5.00;99.90;4.60;100153.00;;;;4931789;28;99330;-68
2021/10/30 06:31:38;;;;;;;14.13;10.03;;;4.80;99.90;4.60;100147.00;;;;4930828;28;94751;-68
2021/10/30 06:34:04;;;;;;;18.43;11.73;;;4.80;99.90;4.60;100158.00;;;;4943445;28;117411;-68
2021/10/30 06:36:31;;;;;;;17.80;10.20;;;5.40;99.90;4.70;100140.00;;;;4930610;28;88541;-69
2021/10/30 06:38:57;;;;;;;15.47;10.40;;;4.80;99.90;4.80;100137.00;;;;4931123;28;87809;-68
2021/10/30 06:41:22;;;;;;;17.03;10.83;;;4.90;99.90;5.00;100134.00;;;;4931351;28;88228;-69
2021/10/30 06:43:48;;;;;;;16.53;11.37;;;5.10;99.90;5.30;100137.00;;;;4933397;28;117904;-68
2021/10/30 06:46:14;;;;;;;13.67;10.13;;;5.30;99.90;5.50;100145.00;;;;4933582;28;117277;-68
2021/10/30 06:48:40;;;;;;;15.20;10.50;;;5.60;99.90;5.70;100149.00;;;;4934522;28;87334;-70
2021/10/30 06:51:09;;;;;;;19.13;9.97;;;5.70;99.90;6.00;100147.00;;;;4948621;28;107814;-69
2021/10/30 06:53:34;;;;;;;15.57;10.10;;;6.10;99.90;6.20;100144.00;;;;4929151;28;88074;-69
2021/10/30 06:56:00;;;;;;;16.80;9.60;;;6.30;99.90;6.50;100150.00;;;;4934195;28;88721;-69
2021/10/30 06:58:30;;;;;;;12.70;9.00;;;6.50;99.90;6.80;100149.00;;;;4933512;28;99572;-69
2021/10/30 07:00:57;;;;;;;12.73;9.13;;;6.80;99.90;7.10;100149.00;;;;4935121;28;87894;-68
2021/10/30 07:03:23;;;;;;;12.50;9.70;;;7.10;99.90;7.40;100153.00;;;;4934485;28;87859;-68
2021/10/30 07:05:49;;;;;;;11.87;8.63;;;7.40;99.90;7.70;100160.00;;;;4932631;28;101820;-69
2021/10/30 07:08:16;;;;;;;13.63;9.30;;;7.70;99.90;8.00;100164.00;;;;4935296;28;87883;-68
2021/10/30 07:10:42;;;;;;;14.70;10.33;;;8.00;99.90;8.30;100158.00;;;;4936033;28;87620;-69
2021/10/30 07:13:07;;;;;;;20.13;10.07;;;8.20;99.90;8.60;100170.00;;;;4932716;28;117081;-69
2021/10/30 07:15:33;;;;;;;20.23;10.67;;;8.50;99.90;8.90;100157.00;;;;4934504;28;90209;-69
2021/10/30 07:17:59;;;;;;;19.23;10.47;;;8.80;99.90;9.10;100159.00;;;;4933295;28;112427;-69
2021/10/30 07:20:25;;;;;;;18.47;11.87;;;9.10;99.90;9.40;100159.00;;;;4933111;28;108026;-68
2021/10/30 07:22:51;;;;;;;16.13;10.77;;;9.40;99.90;9.70;100157.00;;;;4948898;28;88032;-69
2021/10/30 07:25:22;;;;;;;14.07;9.63;;;9.70;99.90;9.90;100151.00;;;;4931956;28;94696;-69
2021/10/30 07:27:49;;;;;;;13.63;9.57;;;9.90;99.90;10.20;100141.00;;;;4934009;28;87881;-69
2021/10/30 07:30:16;;;;;;;14.60;10.30;;;10.10;99.90;10.40;100142.00;;;;4932047;28;87795;-69
2021/10/30 07:32:42;;;;;;;14.70;8.67;;;10.30;99.90;10.70;100137.00;;;;4933058;28;88306;-69
2021/10/30 07:35:09;;;;;;;12.70;9.03;;;10.50;99.90;10.90;100137.00;;;;4935551;28;88190;-70
2021/10/30 07:37:35;;;;;;;13.60;8.70;;;10.80;99.90;11.20;100143.00;;;;4932768;28;87215;-70
2021/10/30 07:40:03;;;;;;;13.87;9.20;;;11.00;99.90;11.50;100145.00;;;;4949169;28;88003;-69
2021/10/30 07:42:29;;;;;;;13.50;8.53;;;11.30;99.20;11.80;100146.00;;;;4933952;28;88966;-68
2021/10/30 07:44:55;;;;;;;201.53;94.07;;;11.60;98.40;12.00;100139.00;;;;4932205;28;117873;-68
2021/10/30 07:47:21;;;;;;;58.17;28.97;;;11.80;97.70;12.30;100141.00;;;;4932711;28;109244;-68
2021/10/30 07:49:47;;;;;;;32.40;16.80;;;12.10;96.40;12.60;100131.00;;;;4934288;28;87784;-67
2021/10/30 07:52:13;;;;;;;19.67;11.23;;;12.40;95.40;12.80;100136.00;;;;4931884;28;116978;-68
2021/10/30 07:54:39;;;;;;;20.97;13.70;;;12.60;94.70;13.10;100130.00;;;;4931740;28;107487;-66
2021/10/30 07:57:07;;;;;;;9.87;8.27;;;12.90;93.60;13.40;100136.00;;;;4946994;28;87842;-68
2021/10/30 07:59:33;;;;;;;15.03;8.93;;;13.10;92.00;13.60;100123.00;;;;4933971;28;87888;-68
2021/10/30 08:02:00;;;;;;;12.97;10.10;;;13.30;88.60;13.60;100119.00;;;;4933184;28;117228;-67
2021/10/30 08:04:27;;;;;;;14.07;9.53;;;13.50;85.70;13.70;100124.00;;;;4933181;28;87947;-66
2021/10/30 08:06:53;;;;;;;14.43;8.67;;;13.60;81.70;13.80;100128.00;;;;4933458;28;101164;-67
2021/10/30 08:09:19;;;;;;;11.90;8.03;;;13.60;82.00;13.90;100119.00;;;;4933671;28;88996;-67
2021/10/30 08:11:45;;;;;;;13.97;8.80;;;13.80;82.70;14.10;100121.00;;;;4930972;28;117064;-67
2021/10/30 08:14:11;;;;;;;15.97;9.13;;;13.90;81.70;14.30;100117.00;;;;4932561;28;118757;-67
2021/10/30 08:16:37;;;;;;;13.00;9.63;;;14.10;80.10;14.50;100110.00;;;;4932525;28;108745;-67
2021/10/30 08:19:04;;;;;;;16.30;9.10;;;14.30;80.00;14.80;100114.00;;;;4934093;28;87776;-66
2021/10/30 08:21:30;;;;;;;13.17;8.03;;;14.50;79.20;15.00;100121.00;;;;4933448;28;102927;-67
2021/10/30 08:23:57;;;;;;;13.07;8.60;;;14.80;77.30;15.30;100124.00;;;;4932651;28;117400;-67
2021/10/30 08:26:23;;;;;;;11.23;7.87;;;15.00;76.80;15.50;100109.00;;;;4933820;28;87136;-67
2021/10/30 08:28:50;;;;;;;13.50;8.20;;;15.30;74.90;15.60;100105.00;;;;4933728;28;96767;-68
2021/10/30 08:31:16;;;;;;;11.77;8.07;;;15.40;71.90;15.70;100099.00;;;;4933843;28;89217;-68
2021/10/30 08:33:42;;;;;;;19.37;8.33;;;15.50;69.00;15.70;100096.00;;;;4932374;28;101651;-69
2021/10/30 08:36:09;;;;;;;15.70;8.73;;;15.50;67.60;15.70;100095.00;;;;4933278;28;111922;-68
2021/10/30 08:38:36;;;;;;;9.70;8.53;;;15.50;66.70;15.70;100084.00;;;;4933148;28;88183;-67
2021/10/30 08:41:03;;;;;;;12.10;7.40;;;15.50;64.70;15.70;100077.00;;;;4933139;28;118819;-67
2021/10/30 08:43:30;;;;;;;11.93;8.55;;;15.60;63.50;15.70;100089.00;;;;4932702;28;88677;-68
2021/10/30 08:45:58;;;;;;;12.73;8.27;;;16.00;63.50;15.80;100077.00;;;;4931646;28;87917;-66
2021/10/30 08:48:30;;;;;;;12.70;8.50;;;15.60;64.00;16.00;100075.00;;;;4933940;28;88041;-68
2021/10/30 08:50:56;;;;;;;8.30;7.00;;;15.80;63.30;16.10;100073.00;;;;4931745;28;87777;-67
2021/10/30 08:53:24;;;;;;;11.95;6.60;;;15.90;61.80;16.20;100060.00;;;;4933526;28;87956;-68
2021/10/30 08:55:50;;;;;;;10.38;5.95;;;16.00;60.00;16.20;100061.00;;;;4933221;28;87691;-67
2021/10/30 08:58:18;;;;;;;9.00;6.57;;;16.00;59.80;16.10;100061.00;;;;4932639;28;91398;-67
2021/10/30 09:00:57;;;;;;;12.90;8.68;;;16.00;59.00;16.10;100054.00;;;;4933537;28;88110;-67
2021/10/30 09:03:24;;;;;;;11.13;7.45;;;16.00;59.20;16.30;100059.00;;;;4930876;28;87814;-66
2021/10/30 09:05:54;;;;;;;11.50;7.38;;;16.10;59.50;16.50;100048.00;;;;4932858;28;87802;-68
2021/10/30 09:08:23;;;;;;;17.25;7.93;;;16.20;59.60;16.70;100048.00;;;;4933065;28;88168;-67
2021/10/30 09:10:56;;;;;;;10.73;6.65;;;16.40;59.60;16.80;100046.00;;;;4932849;28;88722;-66
2021/10/30 09:13:27;;;;;;;13.73;7.78;;;16.50;58.40;17.10;100044.00;;;;4931106;28;87975;-71
2021/10/30 09:15:54;;;;;;;10.57;7.53;;;16.80;57.80;17.10;100041.00;;;;4933647;28;86963;-71
2021/10/30 09:18:34;;;;;;;9.70;7.25;;;16.90;56.90;17.10;100020.00;;;;4931096;28;88015;-72
2021/10/30 09:21:07;;;;;;;12.27;6.82;;;16.90;56.30;17.10;100028.00;;;;4933524;28;88686;-71
2021/10/30 09:23:36;;;;;;;13.25;7.93;;;16.90;56.10;17.10;100024.00;;;;4929113;28;89468;-70
2021/10/30 09:26:11;;;;;;;10.75;7.22;;;16.90;56.10;17.30;100013.00;;;;4931914;28;97722;-73
2021/10/30 09:28:53;;;;;;;12.75;8.10;;;17.00;56.90;17.60;100018.00;;;;4930233;28;89160;-71
2021/10/30 09:31:22;;;;;;;10.60;7.60;;;17.30;57.20;17.90;100017.00;;;;4931196;28;87762;-71
2021/10/30 09:34:05;;;;;;;13.00;6.22;;;17.50;55.90;17.90;100010.00;;;;4931666;28;87849;-72
2021/10/30 09:36:40;;;;;;;11.60;6.30;;;17.70;53.80;17.80;100008.00;;;;4930992;28;87901;-72
2021/10/30 09:39:10;;;;;;;12.68;7.40;;;17.70;53.30;17.80;99998.00;;;;4932955;28;87952;-71
2021/10/30 09:41:39;;;;;;;11.15;7.90;;;17.60;53.70;17.90;100004.00;;;;4932407;28;95995;-72
2021/10/30 09:44:33;;;;;;;8.23;6.00;;;17.70;53.80;18.00;100014.00;;;;4933169;28;87858;-72
2021/10/30 09:46:58;;;;;;;14.20;9.20;;;17.70;54.20;18.20;99998.00;;;;4931597;28;87797;-73
2021/10/30 09:49:29;;;;;;;7.00;5.75;;;17.90;53.60;18.30;100008.00;;;;4932592;28;88806;-72
2021/10/30 09:52:18;;;;;;;8.55;6.47;;;18.00;52.30;18.20;99999.00;;;;4932548;28;88381;-71
2021/10/30 09:54:46;;;;;;;13.75;7.60;;;18.00;52.30;18.20;100002.00;;;;4930126;28;89180;-72
2021/10/30 09:57:28;;;;;;;16.42;7.65;;;18.00;51.80;18.10;100001.00;;;;4932644;28;87851;-72
2021/10/30 09:59:56;;;;;;;14.43;6.50;;;17.90;51.50;18.20;100004.00;;;;4930361;28;87923;-73
2021/10/30 10:02:26;;;;;;;12.20;6.95;;;17.90;52.40;18.30;100007.00;;;;4929974;28;90809;-72
2021/10/30 10:04:53;;;;;;;10.05;6.80;;;18.00;51.70;18.40;100001.00;;;;4930859;28;87803;-73
2021/10/30 10:07:26;;;;;;;9.68;7.32;;;18.10;51.30;18.40;99995.00;;;;4930206;28;94870;-73
2021/10/30 10:09:52;;;;;;;13.05;7.65;;;18.10;51.10;18.30;100000.00;;;;4932419;28;97971;-72
2021/10/30 10:12:19;;;;;;;9.25;6.65;;;18.10;50.40;18.10;99997.00;;;;4930105;28;90075;-72
2021/10/30 10:14:49;;;;;;;10.63;7.15;;;18.00;50.70;18.00;100008.00;;;;4931859;28;88620;-72
2021/10/30 10:17:16;;;;;;;7.15;5.53;;;17.90;50.80;17.90;99992.00;;;;4929864;28;109747;-72
2021/10/30 10:19:42;;;;;;;10.45;6.75;;;17.80;50.90;17.80;99979.00;;;;4936051;28;87912;-72
2021/10/30 10:22:09;;;;;;;9.88;6.88;;;17.70;50.90;17.80;99968.00;;;;4933564;28;88737;-72
2021/10/30 10:24:37;;;;;;;7.32;6.47;;;17.60;51.20;17.80;99954.00;;;;4949852;28;98136;-73
2021/10/30 10:27:06;;;;;;;14.70;7.97;;;17.60;51.40;17.80;99967.00;;;;4935361;28;87826;-72
2021/10/30 10:29:37;;;;;;;11.00;6.28;;;17.60;51.20;17.80;99961.00;;;;4935855;28;87997;-72
2021/10/30 10:32:22;;;;;;;17.30;7.80;;;17.60;51.30;18.00;99952.00;;;;4935091;28;87527;-73
2021/10/30 10:34:49;;;;;;;9.18;6.65;;;17.60;51.50;18.20;99950.00;;;;4934686;28;88125;-72
2021/10/30 10:37:17;;;;;;;9.93;6.78;;;17.90;51.70;18.50;99938.00;;;;4933710;28;88009;-71
2021/10/30 10:39:49;;;;;;;8.32;6.53;;;18.10;51.70;18.70;99931.00;;;;4935388;28;88623;-74
2021/10/30 10:42:35;;;;;;;7.30;6.35;;;18.30;51.50;18.90;99930.00;;;;4935290;28;88907;-71
2021/10/30 10:45:13;;;;;;;11.50;6.43;;;18.60;50.20;18.80;99916.00;;;;4924563;28;87920;-72
2021/10/30 10:47:38;;;;;;;9.52;6.22;;;18.60;49.00;18.70;99909.00;;;;4929751;28;89036;-73
2021/10/30 10:50:26;;;;;;;8.07;5.70;;;18.50;49.00;18.60;99907.00;;;;4935942;28;87872;-72